sensor_id;sensor_type;location;lat;lon;timestamp;temperature;humidity
51878;SHT31;37911;51.526;11.536;2023-01-16T00:00:36;3.79;80.29
51878;SHT31;37911;51.526;11.536;2023-01-16T00:03:39;3.86;80.24
51878;SHT31;37911;51.526;11.536;2023-01-16T00:06:43;3.90;80.05
51878;SHT31;37911;51.526;11.536;2023-01-16T00:09:46;3.93;79.81
51878;SHT31;37911;51.526;11.536;2023-01-16T00:12:49;3.97;79.72
51878;SHT31;37911;51.526;11.536;2023-01-16T00:15:55;4.01;79.53
51878;SHT31;37911;51.526;11.536;2023-01-16T00:18:58;3.96;79.66
51878;SHT31;37911;51.526;11.536;2023-01-16T00:22:02;3.96;79.55
51878;SHT31;37911;51.526;11.536;2023-01-16T00:25:07;3.97;79.61
51878;SHT31;37911;51.526;11.536;2023-01-16T00:28:11;3.91;79.62
51878;SHT31;37911;51.526;11.536;2023-01-16T00:31:17;3.86;79.73
51878;SHT31;37911;51.526;11.536;2023-01-16T00:34:23;3.86;79.91
51878;SHT31;37911;51.526;11.536;2023-01-16T00:37:26;3.87;79.85
51878;SHT31;37911;51.526;11.536;2023-01-16T00:40:30;3.85;79.85
51878;SHT31;37911;51.526;11.536;2023-01-16T00:43:34;3.85;79.73
51878;SHT31;37911;51.526;11.536;2023-01-16T00:46:40;3.93;79.33
51878;SHT31;37911;51.526;11.536;2023-01-16T00:49:43;3.91;79.42
51878;SHT31;37911;51.526;11.536;2023-01-16T00:52:46;3.96;79.25
51878;SHT31;37911;51.526;11.536;2023-01-16T00:55:50;3.93;79.45
51878;SHT31;37911;51.526;11.536;2023-01-16T00:58:54;3.93;79.48
51878;SHT31;37911;51.526;11.536;2023-01-16T01:02:00;3.96;79.36
51878;SHT31;37911;51.526;11.536;2023-01-16T01:05:04;3.91;79.34
51878;SHT31;37911;51.526;11.536;2023-01-16T01:08:09;3.89;79.48
51878;SHT31;37911;51.526;11.536;2023-01-16T01:11:13;3.87;79.70
51878;SHT31;37911;51.526;11.536;2023-01-16T01:14:17;3.86;79.57
51878;SHT31;37911;51.526;11.536;2023-01-16T01:17:23;3.89;79.50
51878;SHT31;37911;51.526;11.536;2023-01-16T01:20:26;3.83;79.71
51878;SHT31;37911;51.526;11.536;2023-01-16T01:23:29;3.82;79.86
51878;SHT31;37911;51.526;11.536;2023-01-16T01:26:33;3.85;79.93
51878;SHT31;37911;51.526;11.536;2023-01-16T01:29:36;3.89;79.67
51878;SHT31;37911;51.526;11.536;2023-01-16T01:32:42;3.91;79.73
51878;SHT31;37911;51.526;11.536;2023-01-16T01:35:45;3.93;79.65
51878;SHT31;37911;51.526;11.536;2023-01-16T01:38:48;3.94;79.43
51878;SHT31;37911;51.526;11.536;2023-01-16T01:41:53;3.97;79.75
51878;SHT31;37911;51.526;11.536;2023-01-16T01:45:20;4.00;79.49
51878;SHT31;37911;51.526;11.536;2023-01-16T01:48:28;4.01;79.61
51878;SHT31;37911;51.526;11.536;2023-01-16T01:51:36;4.00;79.73
51878;SHT31;37911;51.526;11.536;2023-01-16T01:54:44;4.03;79.39
51878;SHT31;37911;51.526;11.536;2023-01-16T01:57:51;4.06;79.53
51878;SHT31;37911;51.526;11.536;2023-01-16T02:00:59;4.04;79.58
51878;SHT31;37911;51.526;11.536;2023-01-16T02:04:08;3.99;79.61
51878;SHT31;37911;51.526;11.536;2023-01-16T02:07:14;3.91;79.64
51878;SHT31;37911;51.526;11.536;2023-01-16T02:10:23;3.90;79.67
51878;SHT31;37911;51.526;11.536;2023-01-16T02:13:30;3.87;79.87
51878;SHT31;37911;51.526;11.536;2023-01-16T02:16:33;3.87;79.83
51878;SHT31;37911;51.526;11.536;2023-01-16T02:20:11;3.82;80.08
51878;SHT31;37911;51.526;11.536;2023-01-16T02:23:33;3.75;80.25
51878;SHT31;37911;51.526;11.536;2023-01-16T02:26:58;3.67;80.52
51878;SHT31;37911;51.526;11.536;2023-01-16T02:30:23;3.75;80.44
51878;SHT31;37911;51.526;11.536;2023-01-16T02:33:37;3.73;80.44
51878;SHT31;37911;51.526;11.536;2023-01-16T02:36:52;3.70;80.30
51878;SHT31;37911;51.526;11.536;2023-01-16T02:40:09;3.67;80.31
51878;SHT31;37911;51.526;11.536;2023-01-16T02:43:27;3.62;80.39
51878;SHT31;37911;51.526;11.536;2023-01-16T02:46:34;3.62;80.39
51878;SHT31;37911;51.526;11.536;2023-01-16T02:49:44;3.56;80.37
51878;SHT31;37911;51.526;11.536;2023-01-16T02:52:51;3.52;80.44
51878;SHT31;37911;51.526;11.536;2023-01-16T02:55:59;3.54;80.39
51878;SHT31;37911;51.526;11.536;2023-01-16T02:59:10;3.48;80.52
51878;SHT31;37911;51.526;11.536;2023-01-16T03:02:14;3.40;80.71
51878;SHT31;37911;51.526;11.536;2023-01-16T03:05:21;3.42;80.82
51878;SHT31;37911;51.526;11.536;2023-01-16T03:08:35;3.35;80.59
51878;SHT31;37911;51.526;11.536;2023-01-16T03:11:46;3.38;80.50
51878;SHT31;37911;51.526;11.536;2023-01-16T03:14:56;3.31;80.66
51878;SHT31;37911;51.526;11.536;2023-01-16T03:18:08;3.28;80.84
51878;SHT31;37911;51.526;11.536;2023-01-16T03:21:24;3.25;80.95
51878;SHT31;37911;51.526;11.536;2023-01-16T03:24:36;3.28;80.78
51878;SHT31;37911;51.526;11.536;2023-01-16T03:27:50;3.31;80.48
51878;SHT31;37911;51.526;11.536;2023-01-16T03:31:00;3.40;80.00
51878;SHT31;37911;51.526;11.536;2023-01-16T03:34:12;3.48;79.53
51878;SHT31;37911;51.526;11.536;2023-01-16T03:37:25;3.48;79.53
51878;SHT31;37911;51.526;11.536;2023-01-16T03:40:34;3.49;79.71
51878;SHT31;37911;51.526;11.536;2023-01-16T03:43:38;3.54;79.04
51878;SHT31;37911;51.526;11.536;2023-01-16T03:46:47;3.59;78.85
51878;SHT31;37911;51.526;11.536;2023-01-16T03:49:54;3.60;78.74
51878;SHT31;37911;51.526;11.536;2023-01-16T03:53:06;3.58;78.74
51878;SHT31;37911;51.526;11.536;2023-01-16T03:56:13;3.56;79.04
51878;SHT31;37911;51.526;11.536;2023-01-16T03:59:18;3.55;78.98
51878;SHT31;37911;51.526;11.536;2023-01-16T04:02:26;3.56;78.89
51878;SHT31;37911;51.526;11.536;2023-01-16T04:05:35;3.49;79.25
51878;SHT31;37911;51.526;11.536;2023-01-16T04:08:45;3.43;79.47
51878;SHT31;37911;51.526;11.536;2023-01-16T04:11:50;3.42;79.51
51878;SHT31;37911;51.526;11.536;2023-01-16T04:14:55;3.39;79.70
51878;SHT31;37911;51.526;11.536;2023-01-16T04:18:00;3.34;79.95
51878;SHT31;37911;51.526;11.536;2023-01-16T04:21:04;3.35;79.89
51878;SHT31;37911;51.526;11.536;2023-01-16T04:24:11;3.34;80.03
51878;SHT31;37911;51.526;11.536;2023-01-16T04:27:14;3.32;79.93
51878;SHT31;37911;51.526;11.536;2023-01-16T04:30:17;3.32;80.07
51878;SHT31;37911;51.526;11.536;2023-01-16T04:33:21;3.35;79.71
51878;SHT31;37911;51.526;11.536;2023-01-16T04:36:26;3.38;79.68
51878;SHT31;37911;51.526;11.536;2023-01-16T04:39:34;3.40;79.59
51878;SHT31;37911;51.526;11.536;2023-01-16T04:42:37;3.38;79.55
51878;SHT31;37911;51.526;11.536;2023-01-16T04:45:40;3.45;79.57
51878;SHT31;37911;51.526;11.536;2023-01-16T04:48:43;3.40;79.72
51878;SHT31;37911;51.526;11.536;2023-01-16T04:51:46;3.40;79.75
51878;SHT31;37911;51.526;11.536;2023-01-16T04:54:52;3.38;79.93
51878;SHT31;37911;51.526;11.536;2023-01-16T04:57:56;3.36;80.06
51878;SHT31;37911;51.526;11.536;2023-01-16T05:00:59;3.36;79.83
51878;SHT31;37911;51.526;11.536;2023-01-16T05:04:03;3.40;79.70
51878;SHT31;37911;51.526;11.536;2023-01-16T05:07:07;3.36;79.82
51878;SHT31;37911;51.526;11.536;2023-01-16T05:10:13;3.38;79.72
51878;SHT31;37911;51.526;11.536;2023-01-16T05:13:16;3.35;79.84
51878;SHT31;37911;51.526;11.536;2023-01-16T05:16:19;3.42;79.46
51878;SHT31;37911;51.526;11.536;2023-01-16T05:19:22;3.36;79.49
51878;SHT31;37911;51.526;11.536;2023-01-16T05:22:26;3.42;79.37
51878;SHT31;37911;51.526;11.536;2023-01-16T05:25:32;3.39;79.38
51878;SHT31;37911;51.526;11.536;2023-01-16T05:28:35;3.39;79.31
51878;SHT31;37911;51.526;11.536;2023-01-16T05:31:39;3.42;79.05
51878;SHT31;37911;51.526;11.536;2023-01-16T05:34:42;3.39;79.13
51878;SHT31;37911;51.526;11.536;2023-01-16T05:37:45;3.40;79.17
51878;SHT31;37911;51.526;11.536;2023-01-16T05:40:51;3.38;79.16
51878;SHT31;37911;51.526;11.536;2023-01-16T05:43:54;3.35;79.18
51878;SHT31;37911;51.526;11.536;2023-01-16T05:46:58;3.34;79.10
51878;SHT31;37911;51.526;11.536;2023-01-16T05:50:01;3.31;79.24
51878;SHT31;37911;51.526;11.536;2023-01-16T05:53:05;3.34;79.17
51878;SHT31;37911;51.526;11.536;2023-01-16T05:56:12;3.36;79.14
51878;SHT31;37911;51.526;11.536;2023-01-16T05:59:15;3.38;78.89
51878;SHT31;37911;51.526;11.536;2023-01-16T06:02:20;3.39;78.59
51878;SHT31;37911;51.526;11.536;2023-01-16T06:05:23;3.36;78.62
51878;SHT31;37911;51.526;11.536;2023-01-16T06:08:27;3.36;78.48
51878;SHT31;37911;51.526;11.536;2023-01-16T06:11:34;3.45;78.16
51878;SHT31;37911;51.526;11.536;2023-01-16T06:14:38;3.49;77.93
51878;SHT31;37911;51.526;11.536;2023-01-16T06:17:41;3.45;78.18
51878;SHT31;37911;51.526;11.536;2023-01-16T06:20:44;3.46;78.00
51878;SHT31;37911;51.526;11.536;2023-01-16T06:23:47;3.51;77.73
51878;SHT31;37911;51.526;11.536;2023-01-16T06:26:53;3.52;77.72
51878;SHT31;37911;51.526;11.536;2023-01-16T06:29:56;3.54;77.81
51878;SHT31;37911;51.526;11.536;2023-01-16T06:33:01;3.51;78.02
51878;SHT31;37911;51.526;11.536;2023-01-16T06:36:04;3.51;77.64
51878;SHT31;37911;51.526;11.536;2023-01-16T06:39:10;3.51;77.46
51878;SHT31;37911;51.526;11.536;2023-01-16T06:42:16;3.48;77.60
51878;SHT31;37911;51.526;11.536;2023-01-16T06:45:20;3.49;77.51
51878;SHT31;37911;51.526;11.536;2023-01-16T06:48:24;3.45;77.46
51878;SHT31;37911;51.526;11.536;2023-01-16T06:51:27;3.43;77.69
51878;SHT31;37911;51.526;11.536;2023-01-16T06:54:31;3.43;77.51
51878;SHT31;37911;51.526;11.536;2023-01-16T06:57:37;3.38;77.79
51878;SHT31;37911;51.526;11.536;2023-01-16T07:00:40;3.36;77.98
51878;SHT31;37911;51.526;11.536;2023-01-16T07:03:47;3.29;78.24
51878;SHT31;37911;51.526;11.536;2023-01-16T07:46:56;3.25;78.14
51878;SHT31;37911;51.526;11.536;2023-01-16T07:51:12;3.22;78.28
51878;SHT31;37911;51.526;11.536;2023-01-16T07:55:19;3.25;78.23
51878;SHT31;37911;51.526;11.536;2023-01-16T07:58:37;3.25;78.31
51878;SHT31;37911;51.526;11.536;2023-01-16T08:06:05;3.34;78.04
51878;SHT31;37911;51.526;11.536;2023-01-16T08:09:42;3.36;78.04
51878;SHT31;37911;51.526;11.536;2023-01-16T08:12:46;3.36;78.04
51878;SHT31;37911;51.526;11.536;2023-01-16T08:15:52;3.45;77.89
51878;SHT31;37911;51.526;11.536;2023-01-16T08:18:56;3.55;77.36
51878;SHT31;37911;51.526;11.536;2023-01-16T08:21:59;3.59;77.27
51878;SHT31;37911;51.526;11.536;2023-01-16T08:25:03;3.60;77.16
51878;SHT31;37911;51.526;11.536;2023-01-16T08:28:07;3.65;77.12
51878;SHT31;37911;51.526;11.536;2023-01-16T08:31:13;3.75;76.51
51878;SHT31;37911;51.526;11.536;2023-01-16T08:34:18;3.87;76.28
51878;SHT31;37911;51.526;11.536;2023-01-16T08:37:22;3.87;76.44
51878;SHT31;37911;51.526;11.536;2023-01-16T08:40:25;3.97;75.72
51878;SHT31;37911;51.526;11.536;2023-01-16T08:43:29;4.07;75.33
51878;SHT31;37911;51.526;11.536;2023-01-16T08:46:56;4.11;74.85
51878;SHT31;37911;51.526;11.536;2023-01-16T08:50:16;4.18;74.55
51878;SHT31;37911;51.526;11.536;2023-01-16T08:53:34;4.31;74.47
51878;SHT31;37911;51.526;11.536;2023-01-16T08:56:37;4.38;73.88
51878;SHT31;37911;51.526;11.536;2023-01-16T08:59:44;4.40;73.71
51878;SHT31;37911;51.526;11.536;2023-01-16T09:02:50;4.47;73.54
51878;SHT31;37911;51.526;11.536;2023-01-16T09:05:54;4.55;74.15
51878;SHT31;37911;51.526;11.536;2023-01-16T09:08:57;4.52;73.16
51878;SHT31;37911;51.526;11.536;2023-01-16T09:12:00;4.47;73.47
51878;SHT31;37911;51.526;11.536;2023-01-16T09:15:16;4.34;74.15
51878;SHT31;37911;51.526;11.536;2023-01-16T09:18:22;4.21;74.71
51878;SHT31;37911;51.526;11.536;2023-01-16T09:21:26;4.13;74.98
51878;SHT31;37911;51.526;11.536;2023-01-16T09:24:29;4.03;75.54
51878;SHT31;37911;51.526;11.536;2023-01-16T09:27:35;4.07;75.82
51878;SHT31;37911;51.526;11.536;2023-01-16T09:30:39;4.07;75.55
51878;SHT31;37911;51.526;11.536;2023-01-16T09:33:45;4.11;75.31
51878;SHT31;37911;51.526;11.536;2023-01-16T09:36:50;4.16;75.83
51878;SHT31;37911;51.526;11.536;2023-01-16T09:39:57;4.17;75.71
51878;SHT31;37911;51.526;11.536;2023-01-16T09:43:15;4.44;74.71
51878;SHT31;37911;51.526;11.536;2023-01-16T09:46:38;4.83;73.76
51878;SHT31;37911;51.526;11.536;2023-01-16T09:49:48;4.78;73.70
51878;SHT31;37911;51.526;11.536;2023-01-16T09:52:53;4.91;73.36
51878;SHT31;37911;51.526;11.536;2023-01-16T09:56:11;5.09;73.12
51878;SHT31;37911;51.526;11.536;2023-01-16T09:59:34;5.35;72.65
51878;SHT31;37911;51.526;11.536;2023-01-16T10:02:38;5.61;71.82
51878;SHT31;37911;51.526;11.536;2023-01-16T10:05:49;5.90;70.92
51878;SHT31;37911;51.526;11.536;2023-01-16T10:09:01;5.84;69.84
51878;SHT31;37911;51.526;11.536;2023-01-16T10:12:11;5.77;70.62
51878;SHT31;37911;51.526;11.536;2023-01-16T10:15:22;5.73;70.38
51878;SHT31;37911;51.526;11.536;2023-01-16T10:18:31;5.83;70.85
51878;SHT31;37911;51.526;11.536;2023-01-16T10:21:56;5.63;71.29
51878;SHT31;37911;51.526;11.536;2023-01-16T10:25:14;5.54;72.11
51878;SHT31;37911;51.526;11.536;2023-01-16T10:28:28;5.50;71.67
51878;SHT31;37911;51.526;11.536;2023-01-16T10:31:41;5.42;71.94
51878;SHT31;37911;51.526;11.536;2023-01-16T10:34:56;5.46;71.69
51878;SHT31;37911;51.526;11.536;2023-01-16T10:38:18;5.56;71.75
51878;SHT31;37911;51.526;11.536;2023-01-16T10:41:27;5.50;71.18
51878;SHT31;37911;51.526;11.536;2023-01-16T10:44:54;5.73;70.97
51878;SHT31;37911;51.526;11.536;2023-01-16T10:48:15;5.83;70.65
51878;SHT31;37911;51.526;11.536;2023-01-16T10:51:31;5.97;69.65
51878;SHT31;37911;51.526;11.536;2023-01-16T10:54:41;6.26;69.00
51878;SHT31;37911;51.526;11.536;2023-01-16T10:57:49;6.55;68.26
51878;SHT31;37911;51.526;11.536;2023-01-16T11:01:17;6.75;67.13
51878;SHT31;37911;51.526;11.536;2023-01-16T11:04:33;7.16;67.64
51878;SHT31;37911;51.526;11.536;2023-01-16T11:07:46;7.24;65.90
51878;SHT31;37911;51.526;11.536;2023-01-16T11:10:52;7.07;65.40
51878;SHT31;37911;51.526;11.536;2023-01-16T11:14:03;7.23;65.85
51878;SHT31;37911;51.526;11.536;2023-01-16T11:17:23;7.26;65.23
51878;SHT31;37911;51.526;11.536;2023-01-16T11:20:40;7.28;65.03
51878;SHT31;37911;51.526;11.536;2023-01-16T11:23:49;7.04;65.28
51878;SHT31;37911;51.526;11.536;2023-01-16T11:26:58;6.96;65.91
51878;SHT31;37911;51.526;11.536;2023-01-16T11:30:14;6.97;66.40
51878;SHT31;37911;51.526;11.536;2023-01-16T11:33:25;6.92;65.94
51878;SHT31;37911;51.526;11.536;2023-01-16T11:36:31;6.92;66.27
51878;SHT31;37911;51.526;11.536;2023-01-16T11:39:37;6.86;66.61
51878;SHT31;37911;51.526;11.536;2023-01-16T11:42:50;6.92;66.53
51878;SHT31;37911;51.526;11.536;2023-01-16T11:46:30;7.01;66.45
51878;SHT31;37911;51.526;11.536;2023-01-16T11:49:36;7.07;66.20
51878;SHT31;37911;51.526;11.536;2023-01-16T11:52:44;6.97;65.87
51878;SHT31;37911;51.526;11.536;2023-01-16T11:55:59;6.90;66.16
51878;SHT31;37911;51.526;11.536;2023-01-16T11:59:33;6.90;65.51
51878;SHT31;37911;51.526;11.536;2023-01-16T12:06:39;6.94;65.47
51878;SHT31;37911;51.526;11.536;2023-01-16T12:09:51;6.94;65.71
51878;SHT31;37911;51.526;11.536;2023-01-16T12:13:04;6.97;65.73
51878;SHT31;37911;51.526;11.536;2023-01-16T12:16:29;6.97;66.22
51878;SHT31;37911;51.526;11.536;2023-01-16T12:20:04;6.97;65.71
51878;SHT31;37911;51.526;11.536;2023-01-16T12:23:23;6.93;64.27
51878;SHT31;37911;51.526;11.536;2023-01-16T12:26:35;6.87;65.44
51878;SHT31;37911;51.526;11.536;2023-01-16T12:29:49;6.87;64.54
51878;SHT31;37911;51.526;11.536;2023-01-16T12:33:07;6.83;64.27
51878;SHT31;37911;51.526;11.536;2023-01-16T12:36:26;6.90;64.68
51878;SHT31;37911;51.526;11.536;2023-01-16T12:39:40;6.82;64.53
51878;SHT31;37911;51.526;11.536;2023-01-16T12:42:59;6.79;65.17
51878;SHT31;37911;51.526;11.536;2023-01-16T12:46:28;6.66;64.93
51878;SHT31;37911;51.526;11.536;2023-01-16T12:49:52;6.66;65.25
51878;SHT31;37911;51.526;11.536;2023-01-16T12:53:16;6.63;65.47
51878;SHT31;37911;51.526;11.536;2023-01-16T12:56:36;6.62;65.87
51878;SHT31;37911;51.526;11.536;2023-01-16T12:59:44;6.71;66.01
51878;SHT31;37911;51.526;11.536;2023-01-16T13:02:55;6.66;66.07
51878;SHT31;37911;51.526;11.536;2023-01-16T13:06:03;6.48;66.94
51878;SHT31;37911;51.526;11.536;2023-01-16T13:09:14;6.48;67.84
51878;SHT31;37911;51.526;11.536;2023-01-16T13:12:25;6.35;67.86
51878;SHT31;37911;51.526;11.536;2023-01-16T13:15:44;6.28;68.06
51878;SHT31;37911;51.526;11.536;2023-01-16T13:19:00;6.28;68.58
51878;SHT31;37911;51.526;11.536;2023-01-16T13:22:20;6.24;68.96
51878;SHT31;37911;51.526;11.536;2023-01-16T13:25:31;6.21;68.97
51878;SHT31;37911;51.526;11.536;2023-01-16T13:29:07;6.15;68.88
51878;SHT31;37911;51.526;11.536;2023-01-16T13:35:54;6.17;68.59
51878;SHT31;37911;51.526;11.536;2023-01-16T13:39:34;6.14;68.79
51878;SHT31;37911;51.526;11.536;2023-01-16T13:42:49;6.10;69.81
51878;SHT31;37911;51.526;11.536;2023-01-16T13:45:54;6.11;69.48
51878;SHT31;37911;51.526;11.536;2023-01-16T13:48:59;6.10;69.52
51878;SHT31;37911;51.526;11.536;2023-01-16T13:52:16;6.02;69.78
51878;SHT31;37911;51.526;11.536;2023-01-16T13:55:28;5.98;69.44
51878;SHT31;37911;51.526;11.536;2023-01-16T13:58:32;5.95;69.30
51878;SHT31;37911;51.526;11.536;2023-01-16T14:01:53;5.91;68.97
51878;SHT31;37911;51.526;11.536;2023-01-16T14:05:16;5.94;68.61
51878;SHT31;37911;51.526;11.536;2023-01-16T14:08:27;6.00;67.49
51878;SHT31;37911;51.526;11.536;2023-01-16T14:12:13;5.97;67.47
51878;SHT31;37911;51.526;11.536;2023-01-16T14:15:23;6.04;66.89
51878;SHT31;37911;51.526;11.536;2023-01-16T14:18:41;6.07;67.44
51878;SHT31;37911;51.526;11.536;2023-01-16T14:21:45;6.17;64.80
51878;SHT31;37911;51.526;11.536;2023-01-16T14:25:03;6.25;64.25
51878;SHT31;37911;51.526;11.536;2023-01-16T14:28:17;6.28;63.37
51878;SHT31;37911;51.526;11.536;2023-01-16T14:31:23;6.31;63.63
51878;SHT31;37911;51.526;11.536;2023-01-16T14:34:33;6.31;62.53
51878;SHT31;37911;51.526;11.536;2023-01-16T14:37:42;6.32;63.14
51878;SHT31;37911;51.526;11.536;2023-01-16T14:40:49;6.29;63.22
51878;SHT31;37911;51.526;11.536;2023-01-16T14:44:18;6.32;62.64
51878;SHT31;37911;51.526;11.536;2023-01-16T14:47:33;6.26;62.70
51878;SHT31;37911;51.526;11.536;2023-01-16T14:50:54;6.25;62.90
51878;SHT31;37911;51.526;11.536;2023-01-16T14:54:16;6.25;62.74
51878;SHT31;37911;51.526;11.536;2023-01-16T14:57:34;6.24;63.20
51878;SHT31;37911;51.526;11.536;2023-01-16T15:00:41;6.18;62.78
51878;SHT31;37911;51.526;11.536;2023-01-16T15:03:47;6.18;63.13
51878;SHT31;37911;51.526;11.536;2023-01-16T15:06:55;6.14;63.30
51878;SHT31;37911;51.526;11.536;2023-01-16T15:10:02;6.15;62.68
51878;SHT31;37911;51.526;11.536;2023-01-16T15:13:15;6.14;62.44
51878;SHT31;37911;51.526;11.536;2023-01-16T15:16:23;6.11;62.93
51878;SHT31;37911;51.526;11.536;2023-01-16T15:20:05;6.07;62.73
51878;SHT31;37911;51.526;11.536;2023-01-16T15:23:24;6.05;62.16
51878;SHT31;37911;51.526;11.536;2023-01-16T15:26:45;6.01;63.05
51878;SHT31;37911;51.526;11.536;2023-01-16T15:29:55;5.97;62.64
51878;SHT31;37911;51.526;11.536;2023-01-16T15:33:03;5.97;62.19
51878;SHT31;37911;51.526;11.536;2023-01-16T15:36:24;5.97;62.35
51878;SHT31;37911;51.526;11.536;2023-01-16T15:39:32;5.97;62.30
51878;SHT31;37911;51.526;11.536;2023-01-16T15:42:40;5.95;62.11
51878;SHT31;37911;51.526;11.536;2023-01-16T15:46:02;5.91;62.52
51878;SHT31;37911;51.526;11.536;2023-01-16T15:49:31;5.94;62.24
51878;SHT31;37911;51.526;11.536;2023-01-16T15:52:38;5.88;62.48
51878;SHT31;37911;51.526;11.536;2023-01-16T15:55:44;5.93;61.63
51878;SHT31;37911;51.526;11.536;2023-01-16T15:58:49;5.91;61.53
51878;SHT31;37911;51.526;11.536;2023-01-16T16:01:53;5.86;62.32
51878;SHT31;37911;51.526;11.536;2023-01-16T16:05:00;5.81;62.29
51878;SHT31;37911;51.526;11.536;2023-01-16T16:08:05;5.80;62.14
51878;SHT31;37911;51.526;11.536;2023-01-16T16:11:17;5.86;62.25
51878;SHT31;37911;51.526;11.536;2023-01-16T16:14:34;5.78;62.60
51878;SHT31;37911;51.526;11.536;2023-01-16T16:18:00;5.71;63.66
51878;SHT31;37911;51.526;11.536;2023-01-16T16:21:11;5.67;63.69
51878;SHT31;37911;51.526;11.536;2023-01-16T16:24:15;5.66;63.75
51878;SHT31;37911;51.526;11.536;2023-01-16T16:27:19;5.66;63.24
51878;SHT31;37911;51.526;11.536;2023-01-16T16:30:25;5.63;63.65
51878;SHT31;37911;51.526;11.536;2023-01-16T16:33:29;5.66;63.02
51878;SHT31;37911;51.526;11.536;2023-01-16T16:36:38;5.70;62.67
51878;SHT31;37911;51.526;11.536;2023-01-16T16:39:45;5.70;62.67
51878;SHT31;37911;51.526;11.536;2023-01-16T16:42:52;5.63;63.80
51878;SHT31;37911;51.526;11.536;2023-01-16T16:46:14;5.58;63.52
51878;SHT31;37911;51.526;11.536;2023-01-16T16:49:34;5.54;64.11
51878;SHT31;37911;51.526;11.536;2023-01-16T16:52:46;5.53;63.94
51878;SHT31;37911;51.526;11.536;2023-01-16T16:55:52;5.50;64.19
51878;SHT31;37911;51.526;11.536;2023-01-16T16:58:56;5.46;64.46
51878;SHT31;37911;51.526;11.536;2023-01-16T17:02:00;5.48;64.22
51878;SHT31;37911;51.526;11.536;2023-01-16T17:05:05;5.51;64.24
51878;SHT31;37911;51.526;11.536;2023-01-16T17:08:15;5.50;64.25
51878;SHT31;37911;51.526;11.536;2023-01-16T17:11:20;5.50;64.52
51878;SHT31;37911;51.526;11.536;2023-01-16T17:14:25;5.53;63.89
51878;SHT31;37911;51.526;11.536;2023-01-16T17:17:28;5.48;64.57
51878;SHT31;37911;51.526;11.536;2023-01-16T17:20:32;5.42;65.24
51878;SHT31;37911;51.526;11.536;2023-01-16T17:23:40;5.44;64.03
51878;SHT31;37911;51.526;11.536;2023-01-16T17:26:43;5.43;64.74
51878;SHT31;37911;51.526;11.536;2023-01-16T17:29:46;5.40;64.93
51878;SHT31;37911;51.526;11.536;2023-01-16T17:32:55;5.42;65.48
51878;SHT31;37911;51.526;11.536;2023-01-16T17:36:00;5.36;65.85
51878;SHT31;37911;51.526;11.536;2023-01-16T17:39:14;5.33;66.51
51878;SHT31;37911;51.526;11.536;2023-01-16T17:42:18;5.30;66.46
51878;SHT31;37911;51.526;11.536;2023-01-16T17:45:36;5.32;66.74
51878;SHT31;37911;51.526;11.536;2023-01-16T17:48:52;5.30;67.25
51878;SHT31;37911;51.526;11.536;2023-01-16T17:51:55;5.29;67.58
51878;SHT31;37911;51.526;11.536;2023-01-16T17:55:01;5.30;67.83
51878;SHT31;37911;51.526;11.536;2023-01-16T17:58:18;5.25;68.16
51878;SHT31;37911;51.526;11.536;2023-01-16T18:01:25;5.19;68.33
51878;SHT31;37911;51.526;11.536;2023-01-16T18:04:29;5.13;68.40
51878;SHT31;37911;51.526;11.536;2023-01-16T18:07:33;5.20;67.70
51878;SHT31;37911;51.526;11.536;2023-01-16T18:10:41;5.13;68.03
51878;SHT31;37911;51.526;11.536;2023-01-16T18:13:44;5.16;68.26
51878;SHT31;37911;51.526;11.536;2023-01-16T18:17:01;5.12;68.56
51878;SHT31;37911;51.526;11.536;2023-01-16T18:20:17;5.09;69.13
51878;SHT31;37911;51.526;11.536;2023-01-16T18:23:22;5.02;69.27
51878;SHT31;37911;51.526;11.536;2023-01-16T18:26:28;5.02;69.55
51878;SHT31;37911;51.526;11.536;2023-01-16T18:29:31;5.00;70.07
51878;SHT31;37911;51.526;11.536;2023-01-16T18:32:36;5.06;70.04
51878;SHT31;37911;51.526;11.536;2023-01-16T18:35:39;5.03;70.38
51878;SHT31;37911;51.526;11.536;2023-01-16T18:38:43;4.96;70.77
51878;SHT31;37911;51.526;11.536;2023-01-16T18:42:01;4.93;71.28
51878;SHT31;37911;51.526;11.536;2023-01-16T18:45:17;4.86;71.47
51878;SHT31;37911;51.526;11.536;2023-01-16T18:48:35;4.81;71.60
51878;SHT31;37911;51.526;11.536;2023-01-16T18:51:51;4.78;71.98
51878;SHT31;37911;51.526;11.536;2023-01-16T18:55:11;4.71;72.35
51878;SHT31;37911;51.526;11.536;2023-01-16T18:58:31;4.60;72.74
51878;SHT31;37911;51.526;11.536;2023-01-16T19:01:52;4.62;72.65
51878;SHT31;37911;51.526;11.536;2023-01-16T19:04:58;4.58;73.05
51878;SHT31;37911;51.526;11.536;2023-01-16T19:08:03;4.52;73.12
51878;SHT31;37911;51.526;11.536;2023-01-16T19:11:15;4.57;73.13
51878;SHT31;37911;51.526;11.536;2023-01-16T19:14:21;4.50;73.14
51878;SHT31;37911;51.526;11.536;2023-01-16T19:17:25;4.47;73.09
51878;SHT31;37911;51.526;11.536;2023-01-16T19:20:29;4.52;72.72
51878;SHT31;37911;51.526;11.536;2023-01-16T19:23:32;4.51;72.70
51878;SHT31;37911;51.526;11.536;2023-01-16T19:26:37;4.51;73.02
51878;SHT31;37911;51.526;11.536;2023-01-16T19:29:47;4.54;72.88
51878;SHT31;37911;51.526;11.536;2023-01-16T19:32:50;4.57;72.05
51878;SHT31;37911;51.526;11.536;2023-01-16T19:35:53;4.50;71.81
51878;SHT31;37911;51.526;11.536;2023-01-16T19:38:57;4.44;71.97
51878;SHT31;37911;51.526;11.536;2023-01-16T19:42:01;4.41;72.11
51878;SHT31;37911;51.526;11.536;2023-01-16T19:45:19;4.36;71.89
51878;SHT31;37911;51.526;11.536;2023-01-16T19:48:35;4.34;71.76
51878;SHT31;37911;51.526;11.536;2023-01-16T19:51:39;4.36;71.56
51878;SHT31;37911;51.526;11.536;2023-01-16T19:54:42;4.28;71.66
51878;SHT31;37911;51.526;11.536;2023-01-16T19:57:45;4.24;71.73
51878;SHT31;37911;51.526;11.536;2023-01-16T20:00:51;4.18;72.09
51878;SHT31;37911;51.526;11.536;2023-01-16T20:03:55;4.20;72.21
51878;SHT31;37911;51.526;11.536;2023-01-16T20:06:58;4.17;71.87
51878;SHT31;37911;51.526;11.536;2023-01-16T20:10:03;4.10;72.50
51878;SHT31;37911;51.526;11.536;2023-01-16T20:13:08;4.06;72.55
51878;SHT31;37911;51.526;11.536;2023-01-16T20:16:15;4.10;72.06
51878;SHT31;37911;51.526;11.536;2023-01-16T20:19:19;4.09;72.27
51878;SHT31;37911;51.526;11.536;2023-01-16T20:22:24;4.07;72.54
51878;SHT31;37911;51.526;11.536;2023-01-16T20:25:28;4.01;72.86
51878;SHT31;37911;51.526;11.536;2023-01-16T20:28:33;4.04;72.91
51878;SHT31;37911;51.526;11.536;2023-01-16T20:31:39;4.01;72.98
51878;SHT31;37911;51.526;11.536;2023-01-16T20:34:43;4.07;72.65
51878;SHT31;37911;51.526;11.536;2023-01-16T20:37:46;4.09;73.11
51878;SHT31;37911;51.526;11.536;2023-01-16T20:40:51;4.11;73.01
51878;SHT31;37911;51.526;11.536;2023-01-16T20:43:54;4.16;72.99
51878;SHT31;37911;51.526;11.536;2023-01-16T20:47:15;4.17;72.83
51878;SHT31;37911;51.526;11.536;2023-01-16T20:50:18;4.24;72.84